XNO17H EHAM-EGGD
Flight info
| Callsign | XNO17H |
|---|---|
| Flight time | 0h 55m |
| Altitude | 34000 |
| Route | IDRID L980 LAM L179 ICTAM |
| Aircraft | A321/M-SDE1E2E3FGHIRWY/LB1 |
Departure
| Time | 2026-05-04 16:22 |
|---|---|
| Airport | Amsterdam Airport Schiphol (EHAM) |
Arrival
| Time | 2026-05-04 17:18 |
|---|---|
| Airport | Bristol Airport (EGGD) |
| Time | Latitude | Longitude | Altitude | Speed | Heading |
|---|---|---|---|---|---|
| 2026-05-04 15:46 | 52.30938 | 4.76878 | -2 ft | 0 kts | 139° |
| 2026-05-04 16:06 | 52.30947 | 4.76865 | -3 ft | 4 kts | 147° |
| 2026-05-04 16:06 | 52.30997 | 4.76790 | -3 ft | 4 kts | 89° |
| 2026-05-04 16:07 | 52.30990 | 4.76766 | -3 ft | 1 kts | 30° |
| 2026-05-04 16:07 | 52.30989 | 4.76765 | -3 ft | 1 kts | 30° |
| 2026-05-04 16:09 | 52.31042 | 4.76821 | -4 ft | 12 kts | 34° |
| 2026-05-04 16:09 | 52.31215 | 4.77008 | 1 ft | 16 kts | 33° |
| 2026-05-04 16:10 | 52.31370 | 4.77172 | 5 ft | 12 kts | 26° |
| 2026-05-04 16:11 | 52.31483 | 4.76958 | 8 ft | 12 kts | 267° |
| 2026-05-04 16:11 | 52.31477 | 4.76784 | 9 ft | 19 kts | 266° |
| 2026-05-04 16:12 | 52.31450 | 4.76026 | 13 ft | 20 kts | 266° |
| 2026-05-04 16:12 | 52.31424 | 4.75325 | 11 ft | 13 kts | 266° |
| 2026-05-04 16:13 | 52.31413 | 4.74987 | 11 ft | 15 kts | 267° |
| 2026-05-04 16:13 | 52.31401 | 4.74592 | 13 ft | 19 kts | 266° |
| 2026-05-04 16:14 | 52.31454 | 4.74289 | 13 ft | 15 kts | 356° |
| 2026-05-04 16:14 | 52.31702 | 4.74307 | 17 ft | 24 kts | 3° |
| 2026-05-04 16:15 | 52.32036 | 4.74143 | 12 ft | 14 kts | 274° |
| 2026-05-04 16:16 | 52.32046 | 4.73857 | 18 ft | 11 kts | 272° |
| 2026-05-04 16:16 | 52.32084 | 4.73377 | 14 ft | 21 kts | 301° |
| 2026-05-04 16:17 | 52.32291 | 4.73073 | 0 ft | 27 kts | 319° |
| 2026-05-04 16:18 | 52.32687 | 4.72506 | 0 ft | 14 kts | 313° |
| 2026-05-04 16:18 | 52.32751 | 4.72387 | -9 ft | 15 kts | 311° |
| 2026-05-04 16:19 | 52.32839 | 4.72013 | -2 ft | 17 kts | 274° |
| 2026-05-04 16:19 | 52.32987 | 4.71697 | 4 ft | 21 kts | 311° |
| 2026-05-04 16:20 | 52.32981 | 4.71273 | 13 ft | 15 kts | 223° |
| 2026-05-04 16:20 | 52.32861 | 4.70990 | 15 ft | 13 kts | 270° |
| 2026-05-04 16:21 | 52.33273 | 4.70922 | 13 ft | 81 kts | 3° |
| 2026-05-04 16:22 | 52.35153 | 4.71092 | 198 ft | 169 kts | 3° |
| 2026-05-04 16:22 | 52.38863 | 4.71409 | 1964 ft | 191 kts | 2° |
| 2026-05-04 16:23 | 52.43350 | 4.71570 | 2882 ft | 248 kts | 344° |
| 2026-05-04 16:24 | 52.46665 | 4.62069 | 5736 ft | 262 kts | 268° |
| 2026-05-04 16:25 | 52.46456 | 4.56020 | 7193 ft | 268 kts | 256° |
| 2026-05-04 16:26 | 52.41508 | 4.47066 | 9993 ft | 281 kts | 235° |
| 2026-05-04 16:26 | 52.38657 | 4.37785 | 10824 ft | 334 kts | 242° |
| 2026-05-04 16:27 | 52.36457 | 4.30941 | 12055 ft | 342 kts | 242° |
| 2026-05-04 16:28 | 52.33016 | 4.20472 | 13939 ft | 353 kts | 242° |
| 2026-05-04 16:28 | 52.28921 | 4.10368 | 15686 ft | 363 kts | 233° |
| 2026-05-04 16:29 | 52.22627 | 3.97203 | 18067 ft | 373 kts | 232° |
| 2026-05-04 16:30 | 52.17774 | 3.87103 | 19630 ft | 381 kts | 232° |
| 2026-05-04 16:31 | 52.14472 | 3.80264 | 20675 ft | 387 kts | 232° |
| 2026-05-04 16:31 | 52.09441 | 3.69823 | 22217 ft | 393 kts | 233° |
| 2026-05-04 16:32 | 52.04317 | 3.59260 | 23637 ft | 400 kts | 233° |
| 2026-05-04 16:33 | 52.00852 | 3.52163 | 24453 ft | 403 kts | 232° |
| 2026-05-04 16:33 | 51.97404 | 3.44936 | 25198 ft | 407 kts | 233° |
| 2026-05-04 16:34 | 51.94057 | 3.37470 | 25972 ft | 410 kts | 234° |
| 2026-05-04 16:34 | 51.92386 | 3.33694 | 26373 ft | 412 kts | 233° |
| 2026-05-04 16:35 | 51.87322 | 3.22428 | 27493 ft | 417 kts | 234° |
| 2026-05-04 16:35 | 51.84385 | 3.09131 | 28497 ft | 430 kts | 261° |
| 2026-05-04 16:36 | 51.84081 | 3.04301 | 28815 ft | 433 kts | 261° |
| 2026-05-04 16:36 | 51.83460 | 2.94581 | 29458 ft | 437 kts | 260° |
| 2026-05-04 16:37 | 51.82808 | 2.84758 | 30075 ft | 442 kts | 261° |
| 2026-05-04 16:37 | 51.82475 | 2.79815 | 30374 ft | 443 kts | 261° |
| 2026-05-04 16:37 | 51.81807 | 2.69954 | 31180 ft | 439 kts | 260° |
| 2026-05-04 16:38 | 51.81136 | 2.60173 | 32004 ft | 436 kts | 260° |
| 2026-05-04 16:39 | 51.80133 | 2.45660 | 33202 ft | 431 kts | 260° |
| 2026-05-04 16:39 | 51.79452 | 2.36071 | 33935 ft | 429 kts | 260° |
| 2026-05-04 16:40 | 51.78104 | 2.17140 | 34003 ft | 423 kts | 261° |
| 2026-05-04 16:41 | 51.76765 | 1.93461 | 34018 ft | 423 kts | 261° |
| 2026-05-04 16:43 | 51.75303 | 1.69819 | 34021 ft | 425 kts | 261° |
| 2026-05-04 16:43 | 51.74400 | 1.55570 | 34025 ft | 426 kts | 261° |
| 2026-05-04 16:45 | 51.72555 | 1.27024 | 34029 ft | 427 kts | 261° |
| 2026-05-04 16:46 | 51.70947 | 1.03252 | 34030 ft | 428 kts | 261° |
| 2026-05-04 16:47 | 51.69632 | 0.84168 | 34042 ft | 429 kts | 261° |
| 2026-05-04 16:48 | 51.68282 | 0.65015 | 34044 ft | 431 kts | 260° |
| 2026-05-04 16:49 | 51.66890 | 0.45831 | 34048 ft | 431 kts | 260° |
| 2026-05-04 16:50 | 51.66184 | 0.36213 | 33729 ft | 433 kts | 261° |
| 2026-05-04 16:50 | 51.65598 | 0.28240 | 33270 ft | 429 kts | 260° |
| 2026-05-04 16:51 | 51.64747 | 0.17037 | 32633 ft | 423 kts | 260° |
| 2026-05-04 16:51 | 51.64363 | 0.12345 | 32365 ft | 421 kts | 259° |
| 2026-05-04 16:51 | 51.63405 | 0.03131 | 31845 ft | 416 kts | 257° |
| 2026-05-04 16:52 | 51.62523 | -0.04524 | 31433 ft | 413 kts | 257° |
| 2026-05-04 16:52 | 51.61997 | -0.09098 | 31179 ft | 412 kts | 257° |
| 2026-05-04 16:53 | 51.61076 | -0.18083 | 30689 ft | 409 kts | 259° |
| 2026-05-04 16:53 | 51.60023 | -0.31811 | 29886 ft | 404 kts | 261° |
| 2026-05-04 16:54 | 51.59692 | -0.36097 | 29609 ft | 402 kts | 260° |
| 2026-05-04 16:55 | 51.58224 | -0.53655 | 28181 ft | 388 kts | 259° |
| 2026-05-04 16:55 | 51.57486 | -0.62184 | 27316 ft | 382 kts | 259° |
| 2026-05-04 16:56 | 51.56761 | -0.70576 | 26478 ft | 376 kts | 259° |
| 2026-05-04 16:56 | 51.55689 | -0.82964 | 25293 ft | 368 kts | 259° |
| 2026-05-04 16:57 | 51.55332 | -0.87028 | 24910 ft | 366 kts | 259° |
| 2026-05-04 16:57 | 51.54620 | -0.95049 | 24160 ft | 359 kts | 259° |
| 2026-05-04 16:58 | 51.53558 | -1.06855 | 22966 ft | 351 kts | 258° |
| 2026-05-04 16:58 | 51.53209 | -1.10723 | 22558 ft | 349 kts | 258° |
| 2026-05-04 16:59 | 51.52991 | -1.18449 | 21796 ft | 347 kts | 274° |
| 2026-05-04 17:00 | 51.54831 | -1.34202 | 20269 ft | 359 kts | 278° |
| 2026-05-04 17:00 | 51.56211 | -1.46008 | 18945 ft | 354 kts | 278° |
| 2026-05-04 17:01 | 51.57085 | -1.53501 | 18046 ft | 351 kts | 278° |
| 2026-05-04 17:01 | 51.57970 | -1.61171 | 17035 ft | 348 kts | 278° |
| 2026-05-04 17:02 | 51.58789 | -1.68792 | 16045 ft | 344 kts | 276° |
| 2026-05-04 17:02 | 51.59336 | -1.76320 | 15094 ft | 339 kts | 274° |
| 2026-05-04 17:03 | 51.59577 | -1.80085 | 14637 ft | 337 kts | 275° |
| 2026-05-04 17:03 | 51.59817 | -1.83821 | 14180 ft | 336 kts | 274° |
| 2026-05-04 17:03 | 51.59862 | -1.91276 | 13325 ft | 328 kts | 270° |
| 2026-05-04 17:04 | 51.59978 | -1.98446 | 12670 ft | 317 kts | 271° |
| 2026-05-04 17:04 | 51.60132 | -2.05504 | 11836 ft | 312 kts | 270° |
| 2026-05-04 17:05 | 51.60298 | -2.12450 | 11074 ft | 309 kts | 270° |
| 2026-05-04 17:05 | 51.60452 | -2.19299 | 10384 ft | 301 kts | 270° |
| 2026-05-04 17:06 | 51.60020 | -2.25706 | 10028 ft | 281 kts | 256° |
| 2026-05-04 17:06 | 51.59588 | -2.28757 | 9684 ft | 279 kts | 256° |
| 2026-05-04 17:07 | 51.58715 | -2.34843 | 8934 ft | 276 kts | 255° |
| 2026-05-04 17:07 | 51.58427 | -2.36834 | 8692 ft | 275 kts | 256° |
| 2026-05-04 17:07 | 51.57841 | -2.40838 | 8168 ft | 275 kts | 256° |
| 2026-05-04 17:07 | 51.57395 | -2.43825 | 8015 ft | 273 kts | 255° |
| 2026-05-04 17:08 | 51.56961 | -2.46756 | 8028 ft | 276 kts | 255° |
| 2026-05-04 17:08 | 51.56077 | -2.52755 | 8029 ft | 276 kts | 256° |
| 2026-05-04 17:08 | 51.55634 | -2.55739 | 7883 ft | 274 kts | 255° |
| 2026-05-04 17:09 | 51.55190 | -2.58725 | 7528 ft | 274 kts | 255° |
| 2026-05-04 17:09 | 51.54740 | -2.61698 | 7167 ft | 273 kts | 255° |
| 2026-05-04 17:09 | 51.54289 | -2.64661 | 6830 ft | 272 kts | 255° |
| 2026-05-04 17:10 | 51.53395 | -2.70562 | 6107 ft | 271 kts | 255° |
| 2026-05-04 17:10 | 51.51821 | -2.79193 | 5042 ft | 267 kts | 242° |
| 2026-05-04 17:11 | 51.50935 | -2.81808 | 4694 ft | 266 kts | 240° |
| 2026-05-04 17:11 | 51.50033 | -2.84362 | 4507 ft | 260 kts | 240° |
| 2026-05-04 17:11 | 51.48358 | -2.89055 | 4525 ft | 226 kts | 240° |
| 2026-05-04 17:12 | 51.47601 | -2.91155 | 4511 ft | 208 kts | 240° |
| 2026-05-04 17:12 | 51.46086 | -2.94925 | 4500 ft | 200 kts | 220° |
| 2026-05-04 17:13 | 51.42170 | -2.96731 | 3331 ft | 198 kts | 190° |
| 2026-05-04 17:14 | 51.38427 | -2.96188 | 2488 ft | 173 kts | 133° |
| 2026-05-04 17:14 | 51.37740 | -2.94708 | 2492 ft | 162 kts | 111° |
| 2026-05-04 17:14 | 51.37491 | -2.91265 | 2511 ft | 155 kts | 84° |
| 2026-05-04 17:15 | 51.37559 | -2.89620 | 2517 ft | 147 kts | 84° |
| 2026-05-04 17:15 | 51.37689 | -2.86417 | 2262 ft | 142 kts | 84° |
| 2026-05-04 17:16 | 51.37815 | -2.83289 | 1915 ft | 141 kts | 83° |
| 2026-05-04 17:16 | 51.38005 | -2.78630 | 1315 ft | 139 kts | 82° |
| 2026-05-04 17:17 | 51.38066 | -2.77094 | 1135 ft | 139 kts | 83° |
| 2026-05-04 17:17 | 51.38245 | -2.72522 | 631 ft | 124 kts | 85° |
| 2026-05-04 17:18 | 51.38281 | -2.71604 | 614 ft | 39 kts | 86° |
| 2026-05-04 17:18 | 51.38328 | -2.71467 | 614 ft | 5 kts | 344° |
| 2026-05-04 17:19 | 51.38422 | -2.71539 | 614 ft | 3 kts | 354° |
| 2026-05-04 17:19 | 51.38446 | -2.71465 | 612 ft | 4 kts | 84° |
| 2026-05-04 17:20 | 51.38452 | -2.71306 | 616 ft | 10 kts | 86° |
| 2026-05-04 17:20 | 51.38489 | -2.71137 | 612 ft | 7 kts | 0° |
| 2026-05-04 17:20 | 51.38514 | -2.71140 | 611 ft | 2 kts | 355° |
| 2026-05-04 17:21 | 51.38517 | -2.71141 | 611 ft | 0 kts | 355° |